ENUH weather

Oslo Heliport, Ullevaal
Oslo, Oslo, Norway

Public forecast

Using degrees Celsius for public forecast. Weather courtesy of forecast.io.

METAR (pilot weather report)

Closest report is Oslo, Fornebu Airport, 4.3 nm (8.0 km) SW. Retrieved 2019/05/19 15:20 UTC (33 minutes ago):

ENFB 191520Z AUTO 09014KT 9999NDV NCD 10/09 Q1012 W///S3

TAF (pilot weather forecast)

Closest forecast is Oslo Gardermoen Airport, 18.9 nm (35.1 km) NE. Retrieved 2019/05/19 12:57 UTC (3 hours ago):

TAF ENGM 191100Z 1912/2012 03008KT 9999 FEW005 BKN020 TEMPO 2005/2012 RA SHRA BKN008 SCT030CB